createdAt,value
2024-05-09T00:00:30.407Z,78.60
2024-05-09T00:03:02.462Z,78.80
2024-05-09T00:05:29.227Z,78.80
2024-05-09T00:07:55.910Z,78.70
2024-05-09T00:10:29.155Z,78.70
2024-05-09T00:13:02.171Z,78.90
2024-05-09T00:15:28.741Z,78.90
2024-05-09T00:17:55.553Z,78.90
2024-05-09T00:20:28.384Z,79.00
2024-05-09T00:23:01.944Z,79.00
2024-05-09T00:25:28.529Z,79.00
2024-05-09T00:27:55.097Z,78.90
2024-05-09T00:30:31.023Z,78.90
2024-05-09T00:33:01.544Z,78.90
2024-05-09T00:35:28.375Z,79.00
2024-05-09T00:37:55.129Z,79.10
2024-05-09T00:40:30.853Z,79.10
2024-05-09T00:43:05.165Z,79.20
2024-05-09T00:45:31.703Z,79.30
2024-05-09T00:47:58.481Z,79.40
2024-05-09T00:50:33.403Z,79.30
2024-05-09T00:53:02.627Z,79.40
2024-05-09T00:55:29.258Z,79.40
2024-05-09T00:57:55.845Z,79.30
2024-05-09T01:00:30.717Z,79.40
2024-05-09T01:03:02.692Z,79.30
2024-05-09T01:05:29.456Z,79.50
2024-05-09T01:07:56.071Z,79.60
2024-05-09T01:10:28.176Z,79.80
2024-05-09T01:13:00.459Z,79.90
2024-05-09T01:15:27.065Z,79.90
2024-05-09T01:17:53.836Z,79.80
2024-05-09T01:20:31.592Z,79.80
2024-05-09T01:23:06.367Z,79.80
2024-05-09T01:25:32.968Z,79.80
2024-05-09T01:27:59.515Z,79.70
2024-05-09T01:30:33.024Z,79.70
2024-05-09T01:33:02.194Z,79.90
2024-05-09T01:35:28.953Z,80.00
2024-05-09T01:37:55.654Z,80.10
2024-05-09T01:40:29.110Z,80.10
2024-05-09T01:43:03.168Z,80.20
2024-05-09T01:45:29.736Z,80.10
2024-05-09T01:47:56.499Z,79.90
2024-05-09T01:50:35.667Z,79.70
2024-05-09T01:53:06.098Z,79.80
2024-05-09T01:55:32.734Z,79.90
2024-05-09T01:57:59.315Z,80.10
2024-05-09T02:00:34.206Z,80.30
2024-05-09T02:03:06.191Z,80.40
2024-05-09T02:05:32.983Z,80.60
2024-05-09T02:07:59.711Z,80.70
2024-05-09T02:10:32.194Z,80.70
2024-05-09T02:12:59.817Z,80.60
2024-05-09T02:15:26.387Z,80.50
2024-05-09T02:17:53.330Z,80.40
2024-05-09T02:20:30.033Z,80.30
2024-05-09T02:23:02.299Z,80.20
2024-05-09T02:25:28.896Z,80.20
2024-05-09T02:27:55.465Z,80.20
2024-05-09T02:30:30.025Z,80.40
2024-05-09T02:33:05.020Z,80.50
2024-05-09T02:35:31.860Z,80.40
2024-05-09T02:37:58.532Z,80.40
2024-05-09T02:40:33.329Z,80.50
2024-05-09T02:43:04.017Z,80.60
2024-05-09T02:45:30.552Z,80.60
2024-05-09T02:47:57.438Z,80.70
2024-05-09T02:50:33.085Z,81.20
2024-05-09T02:53:04.344Z,80.60
2024-05-09T02:55:31.120Z,80.70
2024-05-09T02:57:57.750Z,80.70
2024-05-09T03:00:30.119Z,80.60
2024-05-09T03:03:04.540Z,80.70
2024-05-09T03:05:31.486Z,80.70
2024-05-09T03:07:58.156Z,80.70
2024-05-09T03:10:28.624Z,81.40
2024-05-09T03:12:55.855Z,80.70
2024-05-09T03:15:22.541Z,80.70
2024-05-09T03:17:49.369Z,80.80
2024-05-09T03:20:23.303Z,80.70
2024-05-09T03:22:52.675Z,80.70
2024-05-09T03:25:20.619Z,80.70
2024-05-09T03:27:47.283Z,80.60
2024-05-09T03:30:26.006Z,80.40
2024-05-09T03:33:00.562Z,80.40
2024-05-09T03:35:30.221Z,80.50
2024-05-09T03:37:56.850Z,80.70
2024-05-09T03:40:26.604Z,80.80
2024-05-09T03:42:55.723Z,80.80
2024-05-09T03:45:22.316Z,80.70
2024-05-09T03:47:49.127Z,80.80
2024-05-09T03:50:22.700Z,80.80
2024-05-09T03:52:56.117Z,80.80
2024-05-09T03:55:22.691Z,80.70
2024-05-09T03:57:49.262Z,80.80
2024-05-09T04:00:22.121Z,80.90
2024-05-09T04:02:53.308Z,80.90
2024-05-09T04:05:20.004Z,80.90
2024-05-09T04:07:46.774Z,80.90
2024-05-09T04:10:21.174Z,81.00
2024-05-09T04:12:54.453Z,81.10
2024-05-09T04:15:21.137Z,81.10
2024-05-09T04:17:47.957Z,81.60
2024-05-09T04:20:24.285Z,81.00
2024-05-09T04:22:59.920Z,80.90
2024-05-09T04:25:26.527Z,80.80
2024-05-09T04:27:53.072Z,80.90
2024-05-09T04:30:26.310Z,80.80
2024-05-09T04:33:01.475Z,80.80
2024-05-09T04:35:28.277Z,80.80
2024-05-09T04:37:54.988Z,80.80
2024-05-09T04:40:28.355Z,80.80
2024-05-09T04:43:00.056Z,80.90
2024-05-09T04:45:26.591Z,81.00
2024-05-09T04:47:53.334Z,81.20
2024-05-09T04:50:29.336Z,81.50
2024-05-09T04:53:02.210Z,81.70
2024-05-09T04:55:28.772Z,81.80
2024-05-09T04:57:55.339Z,82.00
2024-05-09T05:00:28.911Z,82.30
2024-05-09T05:03:02.279Z,82.60
2024-05-09T05:05:28.986Z,83.00
2024-05-09T05:07:55.578Z,83.30
2024-05-09T05:10:29.519Z,83.50
2024-05-09T05:13:01.916Z,83.50
2024-05-09T05:15:28.465Z,83.40
2024-05-09T05:17:55.230Z,83.30
2024-05-09T05:20:27.870Z,83.30
2024-05-09T05:22:59.761Z,83.50
2024-05-09T05:25:26.370Z,83.60
2024-05-09T05:27:52.936Z,83.70
2024-05-09T05:30:25.068Z,83.90
2024-05-09T05:32:55.704Z,83.90
2024-05-09T05:35:22.520Z,84.60
2024-05-09T05:37:49.248Z,84.20
2024-05-09T05:40:25.284Z,84.30
2024-05-09T05:42:59.423Z,84.30
2024-05-09T05:45:26.005Z,84.40
2024-05-09T05:47:52.763Z,84.40
2024-05-09T05:50:27.379Z,84.50
2024-05-09T05:52:59.627Z,84.60
2024-05-09T05:55:26.271Z,84.70
2024-05-09T05:57:52.840Z,84.70
2024-05-09T06:00:29.184Z,84.90
2024-05-09T06:03:02.051Z,84.90
2024-05-09T06:05:28.865Z,84.80
2024-05-09T06:07:55.742Z,84.70
2024-05-09T06:10:26.328Z,84.80
2024-05-09T06:13:01.422Z,84.90
2024-05-09T06:15:27.987Z,84.90
2024-05-09T06:17:54.858Z,85.00
2024-05-09T06:20:27.815Z,85.10
2024-05-09T06:23:01.679Z,85.30
2024-05-09T06:25:28.280Z,85.40
2024-05-09T06:27:54.860Z,85.60
2024-05-09T06:30:29.866Z,85.90
2024-05-09T06:33:03.789Z,86.10
2024-05-09T06:35:30.763Z,86.10
2024-05-09T06:37:59.771Z,86.00
2024-05-09T06:40:35.902Z,86.00
2024-05-09T06:43:05.280Z,86.00
2024-05-09T06:45:31.865Z,85.70
2024-05-09T06:47:58.529Z,85.80
2024-05-09T06:50:28.488Z,86.00
2024-05-09T06:53:03.162Z,86.10
2024-05-09T06:55:29.776Z,86.20
2024-05-09T06:57:56.350Z,86.30
2024-05-09T07:00:30.499Z,86.10
2024-05-09T07:03:05.962Z,85.90
2024-05-09T07:05:32.840Z,85.70
2024-05-09T07:07:59.481Z,85.40
2024-05-09T07:10:32.786Z,85.20
2024-05-09T07:13:01.813Z,84.90
2024-05-09T07:15:28.407Z,84.60
2024-05-09T07:17:55.275Z,84.30
2024-05-09T07:20:31.395Z,84.10
2024-05-09T07:23:00.907Z,84.00
2024-05-09T07:25:27.496Z,83.90
2024-05-09T07:27:54.089Z,83.70
2024-05-09T07:30:27.518Z,83.70
2024-05-09T07:32:59.891Z,83.30
2024-05-09T07:35:26.842Z,82.70
2024-05-09T07:37:53.703Z,82.30
2024-05-09T07:40:29.008Z,81.80
2024-05-09T07:43:02.090Z,81.50
2024-05-09T07:45:45.059Z,81.10
2024-05-09T07:49:45.324Z,80.60
2024-05-09T07:53:07.651Z,80.20
2024-05-09T07:53:51.949Z,79.80
2024-05-09T07:56:22.622Z,79.20
2024-05-09T07:58:50.580Z,78.70
2024-05-09T08:01:17.499Z,78.30
2024-05-09T08:03:44.345Z,77.70
2024-05-09T08:06:11.010Z,77.30
2024-05-09T08:08:37.653Z,76.90
2024-05-09T08:11:04.341Z,76.30
2024-05-09T08:13:31.138Z,75.80
2024-05-09T08:15:57.701Z,75.00
2024-05-09T08:18:24.409Z,74.20
2024-05-09T08:20:51.081Z,73.50
2024-05-09T08:23:17.665Z,72.80
2024-05-09T08:25:44.218Z,72.00
2024-05-09T08:28:10.968Z,71.50
2024-05-09T08:30:38.314Z,70.70
2024-05-09T08:33:06.413Z,69.90
2024-05-09T08:35:33.751Z,69.30
2024-05-09T08:38:00.535Z,68.70
2024-05-09T08:40:34.220Z,67.90
2024-05-09T08:43:03.041Z,67.60
2024-05-09T08:45:29.933Z,67.80
2024-05-09T08:47:56.761Z,66.40
2024-05-09T08:50:32.156Z,65.60
2024-05-09T08:53:05.059Z,65.10
2024-05-09T08:55:31.694Z,64.00
2024-05-09T08:57:58.283Z,63.50
2024-05-09T09:00:33.832Z,63.20
2024-05-09T09:03:03.769Z,62.90
2024-05-09T09:05:30.521Z,62.00
2024-05-09T09:07:57.212Z,61.40
2024-05-09T09:10:29.843Z,61.20
2024-05-09T09:12:58.776Z,60.90
2024-05-09T09:15:25.384Z,60.50
2024-05-09T09:17:52.080Z,60.30
2024-05-09T09:20:25.955Z,59.90
2024-05-09T09:22:55.931Z,59.50
2024-05-09T09:25:22.480Z,59.50
2024-05-09T09:27:49.065Z,59.00
2024-05-09T09:30:27.830Z,58.30
2024-05-09T09:33:01.949Z,58.00
2024-05-09T09:35:28.538Z,58.20
2024-05-09T09:37:55.078Z,57.70
2024-05-09T09:40:22.428Z,57.50
2024-05-09T09:42:52.152Z,57.10
2024-05-09T09:45:18.827Z,56.90
2024-05-09T09:47:45.466Z,56.50
2024-05-09T09:50:16.832Z,56.30
2024-05-09T09:52:47.066Z,57.00
2024-05-09T09:55:13.875Z,57.10
2024-05-09T09:57:40.506Z,57.00
2024-05-09T10:00:11.649Z,56.50
2024-05-09T10:02:38.503Z,56.60
2024-05-09T10:05:05.367Z,55.50
2024-05-09T10:07:32.026Z,54.70
2024-05-09T10:09:58.632Z,53.80
2024-05-09T10:12:25.256Z,53.50
2024-05-09T10:14:51.822Z,53.00
2024-05-09T10:17:18.418Z,53.00
2024-05-09T10:19:45.081Z,52.40
2024-05-09T10:22:11.714Z,52.50
2024-05-09T10:24:38.483Z,52.70
2024-05-09T10:27:05.144Z,52.60
2024-05-09T10:29:31.692Z,51.90
2024-05-09T10:31:58.254Z,51.30
2024-05-09T10:34:25.180Z,50.60
2024-05-09T10:36:52.020Z,50.70
2024-05-09T10:39:18.613Z,51.30
2024-05-09T10:41:45.173Z,52.60
2024-05-09T10:44:11.724Z,52.30
2024-05-09T10:46:38.292Z,53.10
2024-05-09T10:49:07.256Z,53.40
2024-05-09T10:51:34.980Z,54.30
2024-05-09T10:54:01.540Z,54.10
2024-05-09T10:56:28.114Z,54.80
2024-05-09T10:58:54.714Z,54.30
2024-05-09T11:01:21.487Z,54.40
2024-05-09T11:03:48.388Z,53.40
2024-05-09T11:06:15.006Z,52.30
2024-05-09T11:08:41.550Z,51.10
2024-05-09T11:11:08.847Z,50.70
2024-05-09T11:13:35.901Z,50.20
2024-05-09T11:16:02.708Z,49.60
2024-05-09T11:18:32.197Z,49.40
2024-05-09T11:21:01.921Z,49.50
2024-05-09T11:23:28.535Z,49.90
2024-05-09T11:25:55.090Z,50.40
2024-05-09T11:28:21.709Z,51.10
2024-05-09T11:30:48.340Z,51.80
2024-05-09T11:33:14.992Z,51.10
2024-05-09T11:35:41.568Z,50.80
2024-05-09T11:38:08.131Z,50.70
2024-05-09T11:40:35.060Z,50.70
2024-05-09T11:43:01.862Z,51.10
2024-05-09T11:45:28.554Z,51.00
2024-05-09T11:47:55.356Z,51.10
2024-05-09T11:50:27.329Z,51.10
2024-05-09T11:52:59.069Z,50.80
2024-05-09T11:55:28.045Z,51.40
2024-05-09T11:57:55.205Z,51.70
2024-05-09T12:00:29.546Z,51.50
2024-05-09T12:03:03.101Z,50.90
2024-05-09T12:05:29.808Z,50.20
2024-05-09T12:07:56.435Z,49.70
2024-05-09T12:10:31.979Z,48.90
2024-05-09T12:13:01.006Z,47.90
2024-05-09T12:15:27.683Z,48.00
2024-05-09T12:17:55.861Z,47.50
2024-05-09T12:20:28.877Z,47.60
2024-05-09T12:23:02.450Z,47.60
2024-05-09T12:25:29.061Z,47.50
2024-05-09T12:27:55.675Z,47.10
2024-05-09T12:30:32.696Z,47.10
2024-05-09T12:33:04.304Z,47.10
2024-05-09T12:35:31.057Z,47.00
2024-05-09T12:37:57.725Z,46.50
2024-05-09T12:40:34.137Z,46.00
2024-05-09T12:43:04.017Z,46.10
2024-05-09T12:45:30.750Z,45.60
2024-05-09T12:47:57.476Z,45.50
2024-05-09T12:50:31.074Z,45.30
2024-05-09T12:52:59.626Z,45.40
2024-05-09T12:55:26.975Z,45.90
2024-05-09T12:57:54.616Z,45.50
2024-05-09T13:00:28.139Z,45.80
2024-05-09T13:03:00.311Z,46.50
2024-05-09T13:05:27.378Z,47.10
2024-05-09T13:07:54.107Z,46.60
2024-05-09T13:10:29.010Z,46.40
2024-05-09T13:12:59.109Z,46.40
2024-05-09T13:15:25.849Z,46.10
2024-05-09T13:17:52.444Z,46.10
2024-05-09T13:20:26.328Z,46.00
2024-05-09T13:22:58.640Z,46.50
2024-05-09T13:25:25.183Z,46.80
2024-05-09T13:27:51.855Z,47.60
2024-05-09T13:30:26.331Z,47.40
2024-05-09T13:33:01.118Z,47.00
2024-05-09T13:35:27.808Z,46.70
2024-05-09T13:37:54.421Z,46.50
2024-05-09T13:40:29.922Z,46.00
2024-05-09T13:43:00.705Z,46.00
2024-05-09T13:45:27.326Z,45.80
2024-05-09T13:47:54.032Z,46.10
2024-05-09T13:50:30.527Z,46.00
2024-05-09T13:53:00.718Z,46.60
2024-05-09T13:55:27.301Z,47.10
2024-05-09T13:57:54.078Z,47.50
2024-05-09T14:02:50.273Z,47.40
2024-05-09T14:05:17.152Z,47.40
2024-05-09T14:07:43.996Z,47.70
2024-05-09T14:10:19.776Z,47.70
2024-05-09T14:12:52.155Z,47.40
2024-05-09T14:15:18.762Z,47.40
2024-05-09T14:17:45.418Z,47.80
2024-05-09T14:20:16.415Z,47.30
2024-05-09T14:22:46.008Z,46.80
2024-05-09T14:25:12.821Z,46.40
2024-05-09T14:27:39.615Z,47.00
2024-05-09T14:30:11.766Z,46.80
2024-05-09T14:32:41.631Z,47.20
2024-05-09T14:35:08.322Z,47.30
2024-05-09T14:37:36.426Z,47.50
2024-05-09T14:40:07.041Z,47.60
2024-05-09T14:42:33.994Z,48.20
2024-05-09T14:45:00.597Z,49.10
2024-05-09T14:47:27.319Z,49.70
2024-05-09T14:49:54.129Z,50.40
2024-05-09T14:52:20.859Z,50.80
2024-05-09T14:54:49.070Z,51.70
2024-05-09T14:57:17.754Z,52.80
2024-05-09T14:59:44.307Z,53.50
2024-05-09T15:02:11.098Z,53.90
2024-05-09T15:04:37.838Z,53.90
2024-05-09T15:07:04.978Z,54.10
2024-05-09T15:09:31.738Z,54.70
2024-05-09T15:11:58.280Z,55.10
2024-05-09T15:14:25.041Z,55.20
2024-05-09T15:16:51.604Z,55.10
2024-05-09T15:19:18.412Z,55.10
2024-05-09T15:21:45.181Z,54.90
2024-05-09T15:24:11.753Z,55.10
2024-05-09T15:26:38.317Z,55.60
2024-05-09T15:29:05.134Z,56.00
2024-05-09T15:31:31.741Z,55.90
2024-05-09T15:33:58.478Z,56.20
2024-05-09T15:36:25.110Z,56.70
2024-05-09T15:38:51.674Z,57.10
2024-05-09T15:41:18.215Z,57.40
2024-05-09T15:43:44.768Z,57.50
2024-05-09T15:46:11.395Z,57.80
2024-05-09T15:48:39.228Z,58.20
2024-05-09T15:51:07.709Z,58.40
2024-05-09T15:53:34.338Z,58.70
2024-05-09T15:56:00.925Z,58.70
2024-05-09T15:58:27.566Z,58.70
2024-05-09T16:00:54.303Z,59.10
2024-05-09T16:03:21.000Z,59.30
2024-05-09T16:05:48.197Z,59.50
2024-05-09T16:08:15.258Z,59.50
2024-05-09T16:10:44.142Z,59.60
2024-05-09T16:13:11.941Z,59.70
2024-05-09T16:15:38.756Z,59.40
2024-05-09T16:18:05.476Z,59.60
2024-05-09T16:20:38.910Z,59.80
2024-05-09T16:23:08.607Z,59.80
2024-05-09T16:25:35.706Z,59.50
2024-05-09T16:28:03.372Z,59.20
2024-05-09T16:30:34.961Z,58.60
2024-05-09T16:33:03.188Z,58.60
2024-05-09T16:35:30.288Z,58.80
2024-05-09T16:37:59.389Z,58.80
2024-05-09T16:40:34.518Z,59.10
2024-05-09T16:43:05.842Z,59.20
2024-05-09T16:45:32.696Z,59.00
2024-05-09T16:47:59.991Z,59.30
2024-05-09T16:50:32.205Z,59.20
2024-05-09T16:53:01.057Z,59.20
2024-05-09T16:55:27.893Z,58.60
2024-05-09T16:57:54.723Z,58.60
2024-05-09T17:00:34.856Z,58.70
2024-05-09T17:03:07.618Z,58.50
2024-05-09T17:05:35.522Z,58.20
2024-05-09T17:08:02.654Z,57.70
2024-05-09T17:10:33.127Z,58.20
2024-05-09T17:13:01.891Z,58.20
2024-05-09T17:15:28.672Z,58.10
2024-05-09T17:17:55.422Z,58.20
2024-05-09T17:20:29.559Z,58.40
2024-05-09T17:23:00.505Z,58.20
2024-05-09T17:25:27.147Z,58.40
2024-05-09T17:27:53.836Z,58.30
2024-05-09T17:30:28.777Z,58.40
2024-05-09T17:33:01.323Z,58.50
2024-05-09T17:35:28.207Z,58.60
2024-05-09T17:37:54.755Z,58.90
2024-05-09T17:40:30.698Z,59.30
2024-05-09T17:43:01.188Z,59.70
2024-05-09T17:45:27.975Z,60.00
2024-05-09T17:47:54.851Z,60.40
2024-05-09T17:50:27.645Z,60.40
2024-05-09T17:53:00.773Z,60.70
2024-05-09T17:55:27.596Z,60.90
2024-05-09T17:57:54.406Z,61.10
2024-05-09T18:00:29.264Z,61.30
2024-05-09T18:03:04.046Z,61.50
2024-05-09T18:05:31.051Z,61.70
2024-05-09T18:07:57.861Z,61.80
2024-05-09T18:10:32.530Z,61.90
2024-05-09T18:13:03.275Z,62.00
2024-05-09T18:15:30.023Z,62.00
2024-05-09T18:17:56.760Z,62.10
2024-05-09T18:20:32.435Z,62.20
2024-05-09T18:23:07.123Z,62.30
2024-05-09T18:25:33.798Z,62.50
2024-05-09T18:28:00.407Z,62.60
2024-05-09T18:30:32.491Z,62.60
2024-05-09T18:33:02.063Z,62.70
2024-05-09T18:35:28.868Z,62.70
2024-05-09T18:37:55.464Z,62.80
2024-05-09T18:40:31.185Z,63.00
2024-05-09T18:43:01.849Z,63.10
2024-05-09T18:45:28.473Z,63.20
2024-05-09T18:47:55.099Z,63.30
2024-05-09T18:50:31.683Z,63.50
2024-05-09T18:53:02.409Z,63.80
2024-05-09T18:55:28.986Z,63.90
2024-05-09T18:57:55.625Z,64.00
2024-05-09T19:00:32.962Z,64.40
2024-05-09T19:03:03.423Z,64.70
2024-05-09T19:05:30.579Z,64.90
2024-05-09T19:07:57.338Z,65.10
2024-05-09T19:10:28.681Z,65.30
2024-05-09T19:12:58.828Z,65.40
2024-05-09T19:15:25.434Z,65.50
2024-05-09T19:17:52.121Z,65.60
2024-05-09T19:20:25.429Z,65.70
2024-05-09T19:22:58.399Z,65.80
2024-05-09T19:25:25.003Z,66.10
2024-05-09T19:27:51.636Z,66.20
2024-05-09T19:30:25.674Z,66.40
2024-05-09T19:33:01.258Z,66.40
2024-05-09T19:35:27.894Z,66.40
2024-05-09T19:37:54.475Z,66.50
2024-05-09T19:40:28.877Z,66.50
2024-05-09T19:42:58.676Z,66.60
2024-05-09T19:45:25.379Z,66.80
2024-05-09T19:47:52.233Z,67.00
2024-05-09T19:50:26.714Z,67.20
2024-05-09T19:52:59.534Z,67.40
2024-05-09T19:55:26.176Z,67.50
2024-05-09T19:57:52.883Z,67.60
2024-05-09T20:00:26.050Z,67.70
2024-05-09T20:02:56.179Z,67.80
2024-05-09T20:05:23.323Z,67.90
2024-05-09T20:07:50.206Z,68.20
2024-05-09T20:10:23.510Z,68.40
2024-05-09T20:12:53.262Z,68.80
2024-05-09T20:15:19.876Z,69.20
2024-05-09T20:17:46.561Z,69.60
2024-05-09T20:20:23.540Z,70.10
2024-05-09T20:22:58.389Z,70.30
2024-05-09T20:25:24.953Z,70.10
2024-05-09T20:27:51.597Z,69.90
2024-05-09T20:30:25.431Z,69.80
2024-05-09T20:32:58.186Z,69.80
2024-05-09T20:35:24.961Z,69.80
2024-05-09T20:37:51.572Z,69.80
2024-05-09T20:40:25.595Z,70.00
2024-05-09T20:42:57.957Z,70.40
2024-05-09T20:45:24.534Z,70.60
2024-05-09T20:47:51.161Z,70.90
2024-05-09T20:50:27.847Z,71.20
2024-05-09T20:53:02.500Z,71.60
2024-05-09T20:55:29.182Z,71.90
2024-05-09T20:57:55.798Z,72.10
2024-05-09T21:00:29.812Z,72.10
2024-05-09T21:03:02.353Z,72.00
2024-05-09T21:05:29.186Z,71.80
2024-05-09T21:07:55.868Z,71.70
2024-05-09T21:10:23.003Z,71.70
2024-05-09T21:12:52.900Z,71.70
2024-05-09T21:15:19.464Z,71.70
2024-05-09T21:17:46.239Z,71.90
2024-05-09T21:20:17.362Z,71.90
2024-05-09T21:22:47.300Z,71.80
2024-05-09T21:25:14.057Z,71.70
2024-05-09T21:27:41.006Z,71.80
2024-05-09T21:30:12.929Z,71.90
2024-05-09T21:32:44.986Z,72.00
2024-05-09T21:35:11.623Z,72.10
2024-05-09T21:37:38.208Z,72.30
2024-05-09T21:40:09.300Z,72.60
2024-05-09T21:42:38.064Z,72.70
2024-05-09T21:45:04.998Z,72.90
2024-05-09T21:47:31.732Z,73.20
2024-05-09T21:49:58.348Z,73.40
2024-05-09T21:52:24.919Z,73.50
2024-05-09T21:54:51.488Z,73.60
2024-05-09T21:57:18.074Z,73.80
2024-05-09T21:59:44.622Z,74.00
2024-05-09T22:02:11.513Z,74.20
2024-05-09T22:04:38.411Z,74.40
2024-05-09T22:07:05.126Z,74.70
2024-05-09T22:09:31.819Z,74.80
2024-05-09T22:11:58.511Z,74.70
2024-05-09T22:14:25.100Z,74.60
2024-05-09T22:16:51.680Z,74.70
2024-05-09T22:19:18.284Z,74.70
2024-05-09T22:21:44.909Z,74.90
2024-05-09T22:24:11.453Z,75.00
2024-05-09T22:26:38.015Z,75.10
2024-05-09T22:29:04.805Z,75.00
2024-05-09T22:31:31.408Z,75.00
2024-05-09T22:33:58.195Z,75.00
2024-05-09T22:36:24.846Z,75.00
2024-05-09T22:38:51.401Z,75.00
2024-05-09T22:41:17.961Z,74.90
2024-05-09T22:43:44.549Z,74.80
2024-05-09T22:46:11.155Z,75.00
2024-05-09T22:48:38.198Z,75.10
2024-05-09T22:51:05.101Z,75.20
2024-05-09T22:53:31.690Z,75.20
2024-05-09T22:55:58.261Z,75.20
2024-05-09T22:58:25.001Z,75.20
2024-05-09T23:00:51.847Z,75.20
2024-05-09T23:03:18.651Z,75.40
2024-05-09T23:05:45.325Z,75.50
2024-05-09T23:08:11.870Z,75.60
2024-05-09T23:10:38.698Z,75.70
2024-05-09T23:13:05.608Z,75.80
2024-05-09T23:15:32.588Z,75.80
2024-05-09T23:17:59.394Z,75.90
2024-05-09T23:20:33.504Z,76.20
2024-05-09T23:23:04.771Z,76.40
2024-05-09T23:25:31.339Z,76.60
2024-05-09T23:27:57.945Z,77.00
2024-05-09T23:30:33.627Z,76.20
2024-05-09T23:33:04.980Z,76.30
2024-05-09T23:35:31.689Z,76.60
2024-05-09T23:37:58.310Z,76.80
2024-05-09T23:40:36.369Z,77.00
2024-05-09T23:43:06.131Z,77.20
2024-05-09T23:45:33.080Z,77.30
2024-05-09T23:47:59.858Z,77.40
2024-05-09T23:50:33.545Z,77.50
2024-05-09T23:53:03.180Z,77.60
2024-05-09T23:55:29.811Z,77.70
2024-05-09T23:57:56.467Z,77.70
